createdAt,value
2022-10-04T00:00:12.424Z,5.70
2022-10-04T00:02:48.330Z,6.20
2022-10-04T00:05:25.998Z,6.40
2022-10-04T00:08:00.097Z,6.00
2022-10-04T00:10:51.343Z,5.40
2022-10-04T00:13:26.970Z,5.20
2022-10-04T00:15:57.789Z,5.50
2022-10-04T00:18:32.963Z,5.10
2022-10-04T00:21:08.335Z,5.80
2022-10-04T00:23:48.686Z,4.90
2022-10-04T00:27:10.974Z,4.60
2022-10-04T00:29:44.948Z,5.60
2022-10-04T00:32:30.846Z,5.70
2022-10-04T00:35:02.357Z,5.80
2022-10-04T00:37:57.684Z,5.90
2022-10-04T00:40:33.665Z,5.20
2022-10-04T00:43:09.324Z,5.30
2022-10-04T00:45:46.372Z,5.40
2022-10-04T00:48:40.395Z,4.90
2022-10-04T00:51:26.969Z,5.10
2022-10-04T00:54:06.163Z,5.20
2022-10-04T00:56:44.469Z,6.00
2022-10-04T00:59:38.336Z,5.60
2022-10-04T01:02:16.406Z,5.70
2022-10-04T01:04:52.771Z,5.50
2022-10-04T01:07:39.134Z,5.60
2022-10-04T01:10:13.877Z,5.10
2022-10-04T01:12:51.578Z,5.30
2022-10-04T01:15:33.967Z,5.00
2022-10-04T01:18:14.862Z,5.30
2022-10-04T01:20:57.651Z,5.40
2022-10-04T01:23:40.578Z,5.40
2022-10-04T01:26:41.673Z,5.70
2022-10-04T01:29:18.853Z,4.90
2022-10-04T01:31:55.112Z,5.40
2022-10-04T01:34:34.475Z,5.30
2022-10-04T01:37:25.528Z,5.50
2022-10-04T01:40:12.381Z,5.20
2022-10-04T01:42:56.371Z,6.50
2022-10-04T01:45:51.689Z,5.30
2022-10-04T01:48:38.733Z,5.50
2022-10-04T01:51:25.050Z,5.30
2022-10-04T01:54:00.982Z,6.00
2022-10-04T01:57:00.065Z,5.50
2022-10-04T01:59:41.084Z,5.20
2022-10-04T02:02:38.067Z,4.90
2022-10-04T02:05:34.963Z,6.20
2022-10-04T02:08:11.957Z,5.40
2022-10-04T02:11:06.372Z,5.20
2022-10-04T02:13:59.432Z,4.70
2022-10-04T02:16:37.325Z,5.30
2022-10-04T02:19:12.136Z,5.60
2022-10-04T02:21:43.554Z,5.90
2022-10-04T02:24:15.042Z,5.10
2022-10-04T02:26:53.513Z,5.30
2022-10-04T02:29:27.541Z,4.30
2022-10-04T02:32:19.817Z,5.30
2022-10-04T02:34:55.091Z,4.80
2022-10-04T02:37:27.666Z,5.40
2022-10-04T02:40:18.483Z,5.80
2022-10-04T02:43:15.638Z,5.50
2022-10-04T02:45:52.021Z,6.20
2022-10-04T02:48:39.735Z,5.40
2022-10-04T02:51:35.330Z,5.40
2022-10-04T02:54:31.793Z,5.60
2022-10-04T02:57:03.087Z,5.40
2022-10-04T03:00:02.694Z,6.30
2022-10-04T03:03:18.153Z,6.20
2022-10-04T03:06:02.916Z,5.70
2022-10-04T03:08:51.684Z,4.70
2022-10-04T03:11:36.361Z,5.30
2022-10-04T03:14:29.304Z,5.70
2022-10-04T03:17:08.625Z,5.10
2022-10-04T03:20:00.319Z,4.60
2022-10-04T03:25:51.755Z,4.40
2022-10-04T03:28:42.874Z,4.90
2022-10-04T03:31:28.009Z,4.90
2022-10-04T03:34:14.620Z,5.60
2022-10-04T03:36:58.896Z,5.70
2022-10-04T03:39:53.222Z,5.10
2022-10-04T03:42:45.029Z,4.90
2022-10-04T03:45:21.072Z,5.00
2022-10-04T03:48:17.463Z,5.40
2022-10-04T03:50:56.469Z,5.60
2022-10-04T03:53:37.603Z,5.10
2022-10-04T03:56:32.991Z,5.50
2022-10-04T03:59:26.508Z,5.10
2022-10-04T04:02:30.975Z,5.30
2022-10-04T04:05:27.381Z,5.20
2022-10-04T04:08:14.666Z,5.10
2022-10-04T04:11:08.524Z,5.20
2022-10-04T04:13:50.820Z,4.50
2022-10-04T04:16:27.122Z,5.20
2022-10-04T04:19:16.894Z,5.10
2022-10-04T04:21:58.085Z,4.90
2022-10-04T04:24:39.093Z,4.90
2022-10-04T04:27:16.290Z,4.80
2022-10-04T04:29:53.855Z,4.30
2022-10-04T04:32:28.434Z,4.40
2022-10-04T04:35:31.587Z,4.50
2022-10-04T04:38:24.893Z,4.30
2022-10-04T04:41:15.589Z,5.20
2022-10-04T04:44:13.334Z,4.60
2022-10-04T04:46:44.754Z,4.70
2022-10-04T04:49:29.161Z,4.80
2022-10-04T04:52:26.319Z,5.00
2022-10-04T04:55:01.707Z,4.60
2022-10-04T04:57:33.329Z,4.10
2022-10-04T05:00:30.378Z,4.60
2022-10-04T05:03:07.033Z,4.20
2022-10-04T05:05:50.897Z,4.70
2022-10-04T05:08:30.370Z,5.10
2022-10-04T05:11:16.227Z,5.20
2022-10-04T05:14:03.043Z,4.90
2022-10-04T05:16:41.985Z,5.00
2022-10-04T05:19:36.858Z,4.80
2022-10-04T05:22:29.675Z,4.90
2022-10-04T05:25:27.824Z,5.10
2022-10-04T05:28:19.439Z,4.80
2022-10-04T05:34:24.041Z,4.70
2022-10-04T05:37:20.807Z,5.20
2022-10-04T05:40:08.274Z,4.90
2022-10-04T05:42:59.721Z,4.80
2022-10-04T05:45:41.646Z,5.40
2022-10-04T05:48:17.102Z,5.70
2022-10-04T05:50:48.665Z,5.90
2022-10-04T05:53:43.192Z,6.30
2022-10-04T05:56:50.688Z,5.60
2022-10-04T06:00:10.489Z,4.90
2022-10-04T06:03:14.869Z,5.90
2022-10-04T06:06:17.558Z,5.40
2022-10-04T06:09:18.704Z,5.20
2022-10-04T06:12:06.953Z,6.10
2022-10-04T06:15:08.214Z,5.00
2022-10-04T06:18:25.701Z,5.20
2022-10-04T06:21:11.796Z,5.80
2022-10-04T06:23:58.813Z,5.30
2022-10-04T06:26:36.310Z,5.60
2022-10-04T06:29:21.015Z,4.70
2022-10-04T06:32:37.076Z,5.10
2022-10-04T06:35:36.174Z,4.60
2022-10-04T06:38:44.829Z,6.50
2022-10-04T06:41:38.254Z,6.00
2022-10-04T06:44:31.087Z,6.00
2022-10-04T06:47:21.195Z,7.30
2022-10-04T06:50:26.118Z,5.80
2022-10-04T06:53:15.391Z,6.30
2022-10-04T06:56:10.127Z,6.10
2022-10-04T06:59:11.104Z,8.30
2022-10-04T07:01:53.948Z,7.20
2022-10-04T07:05:03.184Z,6.70
2022-10-04T07:07:36.565Z,6.40
2022-10-04T07:10:26.900Z,6.60
2022-10-04T07:13:12.413Z,7.20
2022-10-04T07:15:52.294Z,7.20
2022-10-04T07:18:32.795Z,6.40
2022-10-04T07:21:09.664Z,7.00
2022-10-04T07:23:56.600Z,6.10
2022-10-04T07:26:33.387Z,6.10
2022-10-04T07:29:23.128Z,6.10
2022-10-04T07:32:10.163Z,4.90
2022-10-04T07:34:46.514Z,6.60
2022-10-04T07:37:20.541Z,7.10
2022-10-04T07:39:58.151Z,8.40
2022-10-04T07:42:35.256Z,9.50
2022-10-04T07:45:15.616Z,9.20
2022-10-04T07:47:46.529Z,7.70
2022-10-04T07:50:36.550Z,7.70
2022-10-04T07:53:13.285Z,8.20
2022-10-04T07:55:58.352Z,8.40
2022-10-04T07:58:45.923Z,8.80
2022-10-04T08:01:36.118Z,8.80
2022-10-04T08:04:41.973Z,8.70
2022-10-04T08:07:27.978Z,8.40
2022-10-04T08:10:13.396Z,7.90
2022-10-04T08:12:53.433Z,8.40
2022-10-04T08:15:38.659Z,7.40
2022-10-04T08:18:23.063Z,8.70
2022-10-04T08:21:07.487Z,8.00
2022-10-04T08:24:10.362Z,7.80
2022-10-04T08:26:54.212Z,6.80
2022-10-04T08:29:47.738Z,8.60
2022-10-04T08:32:45.357Z,7.20
2022-10-04T08:35:37.092Z,7.30
2022-10-04T08:38:22.419Z,7.70
2022-10-04T08:41:48.661Z,6.90
2022-10-04T08:44:58.142Z,6.70
2022-10-04T08:47:59.574Z,7.10
2022-10-04T08:51:26.602Z,7.90
2022-10-04T08:54:29.680Z,8.10
2022-10-04T08:57:16.471Z,10.00
2022-10-04T09:00:15.203Z,11.60
2022-10-04T09:03:42.546Z,8.80
2022-10-04T09:06:36.610Z,10.20
2022-10-04T09:09:44.593Z,9.40
2022-10-04T09:12:59.037Z,8.30
2022-10-04T09:15:52.647Z,9.70
2022-10-04T09:18:41.528Z,9.00
2022-10-04T09:21:53.143Z,9.00
2022-10-04T09:24:54.460Z,8.30
2022-10-04T09:27:57.033Z,8.40
2022-10-04T09:30:50.414Z,8.80
2022-10-04T09:33:46.015Z,7.90
2022-10-04T09:36:52.609Z,9.20
2022-10-04T09:39:41.684Z,8.90
2022-10-04T09:42:42.677Z,8.70
2022-10-04T09:45:47.644Z,8.80
2022-10-04T09:48:38.136Z,8.50
2022-10-04T09:51:32.054Z,7.60
2022-10-04T09:54:15.111Z,9.00
2022-10-04T09:57:22.271Z,8.60
2022-10-04T10:00:14.494Z,8.50
2022-10-04T10:03:11.015Z,9.40
2022-10-04T10:06:12.353Z,8.90
2022-10-04T10:08:59.199Z,7.70
2022-10-04T10:12:11.820Z,7.90
2022-10-04T10:15:01.467Z,8.60
2022-10-04T10:17:40.378Z,8.40
2022-10-04T10:20:51.305Z,8.70
2022-10-04T10:23:47.998Z,9.20
2022-10-04T10:26:34.266Z,7.70
2022-10-04T10:29:28.492Z,8.80
2022-10-04T10:32:32.846Z,8.40
2022-10-04T10:35:31.687Z,9.30
2022-10-04T10:38:26.004Z,8.10
2022-10-04T10:41:31.275Z,9.80
2022-10-04T10:44:23.638Z,8.90
2022-10-04T10:47:08.551Z,9.90
2022-10-04T10:50:05.416Z,9.20
2022-10-04T10:53:18.353Z,9.30
2022-10-04T10:56:20.270Z,8.80
2022-10-04T10:59:13.300Z,9.20
2022-10-04T11:02:07.660Z,8.30
2022-10-04T11:04:57.164Z,8.20
2022-10-04T11:07:54.231Z,8.40
2022-10-04T11:10:59.777Z,8.50
2022-10-04T11:13:55.511Z,8.40
2022-10-04T11:17:06.115Z,8.50
2022-10-04T11:20:08.700Z,8.70
2022-10-04T11:23:22.475Z,7.90
2022-10-04T11:26:08.827Z,8.60
2022-10-04T11:28:47.572Z,8.30
2022-10-04T11:31:51.881Z,9.60
2022-10-04T11:35:00.916Z,7.90
2022-10-04T11:37:47.525Z,9.20
2022-10-04T11:40:35.462Z,8.80
2022-10-04T11:43:25.371Z,8.80
2022-10-04T11:46:16.331Z,8.00
2022-10-04T11:49:02.810Z,8.10
2022-10-04T11:52:06.566Z,8.10
2022-10-04T11:55:10.779Z,7.70
2022-10-04T11:57:46.729Z,7.10
2022-10-04T12:00:21.219Z,7.50
2022-10-04T12:03:19.273Z,7.10
2022-10-04T12:06:22.824Z,6.40
2022-10-04T12:09:06.086Z,6.80
2022-10-04T12:12:14.887Z,7.40
2022-10-04T12:15:03.544Z,6.10
2022-10-04T12:18:14.348Z,6.40
2022-10-04T12:21:10.672Z,6.60
2022-10-04T12:24:00.127Z,6.00
2022-10-04T12:26:55.953Z,6.00
2022-10-04T12:30:03.533Z,6.50
2022-10-04T12:32:39.221Z,6.10
2022-10-04T12:35:27.572Z,6.40
2022-10-04T12:38:24.537Z,5.20
2022-10-04T12:41:03.993Z,6.10
2022-10-04T12:43:45.522Z,5.40
2022-10-04T12:46:29.306Z,6.00
2022-10-04T12:49:17.358Z,5.70
2022-10-04T12:52:03.355Z,5.90
2022-10-04T12:54:39.460Z,6.30
2022-10-04T12:57:28.563Z,6.20
2022-10-04T13:00:14.343Z,5.40
2022-10-04T13:03:08.119Z,5.20
2022-10-04T13:05:51.388Z,5.60
2022-10-04T13:08:33.474Z,5.20
2022-10-04T13:11:29.111Z,4.30
2022-10-04T13:14:16.703Z,4.90
2022-10-04T13:19:56.934Z,4.80
2022-10-04T13:22:56.039Z,4.30
2022-10-04T13:25:38.572Z,4.80
2022-10-04T13:28:21.398Z,4.30
2022-10-04T13:31:01.259Z,4.20
2022-10-04T13:33:42.997Z,4.40
2022-10-04T13:36:19.351Z,4.30
2022-10-04T13:39:17.008Z,4.60
2022-10-04T13:42:12.257Z,5.00
2022-10-04T13:45:11.602Z,4.70
2022-10-04T13:47:55.546Z,4.70
2022-10-04T13:50:38.412Z,4.40
2022-10-04T13:53:38.915Z,4.50
2022-10-04T13:56:40.201Z,4.70
2022-10-04T13:59:20.255Z,4.90
2022-10-04T14:02:36.482Z,4.70
2022-10-04T14:05:41.693Z,4.40
2022-10-04T14:08:57.483Z,4.70
2022-10-04T14:12:06.519Z,5.10
2022-10-04T14:15:06.669Z,4.80
2022-10-04T14:21:15.239Z,4.90
2022-10-04T14:24:12.579Z,4.20
2022-10-04T14:27:20.499Z,5.40
2022-10-04T14:30:12.849Z,4.10
2022-10-04T14:33:19.207Z,5.20
2022-10-04T14:35:58.657Z,4.70
2022-10-04T14:38:56.186Z,4.40
2022-10-04T14:42:07.088Z,4.80
2022-10-04T14:45:00.940Z,5.20
2022-10-04T14:47:43.787Z,5.20
2022-10-04T14:50:32.608Z,4.80
2022-10-04T14:53:17.354Z,4.50
2022-10-04T14:56:09.284Z,4.70
2022-10-04T14:58:53.677Z,4.70
2022-10-04T15:01:27.311Z,4.80
2022-10-04T15:04:20.008Z,5.20
2022-10-04T15:06:52.744Z,4.50
2022-10-04T15:09:45.887Z,4.80
2022-10-04T15:13:09.778Z,4.40
2022-10-04T15:16:01.986Z,4.60
2022-10-04T15:18:49.988Z,5.10
2022-10-04T15:21:48.298Z,5.50
2022-10-04T15:24:30.129Z,4.50
2022-10-04T15:27:37.616Z,4.80
2022-10-04T15:30:24.250Z,4.70
2022-10-04T15:33:14.950Z,4.80
2022-10-04T15:36:09.086Z,5.10
2022-10-04T15:38:53.894Z,5.40
2022-10-04T15:41:31.945Z,4.80
2022-10-04T15:44:31.094Z,4.90
2022-10-04T15:47:18.345Z,5.20
2022-10-04T15:50:05.004Z,5.20
2022-10-04T15:52:54.428Z,4.60
2022-10-04T15:55:34.416Z,4.60
2022-10-04T15:58:36.099Z,4.50
2022-10-04T16:01:28.354Z,4.40
2022-10-04T16:04:40.284Z,4.80
2022-10-04T16:07:39.787Z,4.70
2022-10-04T16:10:23.495Z,4.60
2022-10-04T16:13:23.658Z,5.40
2022-10-04T16:16:28.288Z,5.50
2022-10-04T16:19:10.813Z,5.10
2022-10-04T16:21:51.826Z,5.30
2022-10-04T16:24:58.347Z,5.30
2022-10-04T16:27:46.097Z,5.30
2022-10-04T16:30:28.662Z,5.00
2022-10-04T16:33:25.462Z,5.50
2022-10-04T16:36:10.364Z,5.30
2022-10-04T16:39:03.182Z,5.90
2022-10-04T16:41:41.492Z,5.50
2022-10-04T16:44:32.267Z,5.60
2022-10-04T16:47:15.188Z,5.60
2022-10-04T16:49:55.231Z,5.80
2022-10-04T16:52:49.301Z,5.10
2022-10-04T16:55:33.521Z,5.20
2022-10-04T16:58:41.424Z,5.40
2022-10-04T17:01:45.971Z,6.60
2022-10-04T17:04:42.983Z,5.20
2022-10-04T17:07:53.254Z,5.30
2022-10-04T17:10:38.950Z,5.30
2022-10-04T17:13:24.422Z,5.90
2022-10-04T17:16:12.807Z,5.10
2022-10-04T17:18:56.826Z,5.30
2022-10-04T17:24:15.848Z,5.60
2022-10-04T17:27:00.825Z,5.90
2022-10-04T17:29:48.247Z,5.80
2022-10-04T17:32:28.301Z,5.60
2022-10-04T17:35:18.167Z,5.70
2022-10-04T17:37:56.746Z,5.40
2022-10-04T17:40:38.739Z,6.70
2022-10-04T17:43:24.634Z,5.80
2022-10-04T17:46:07.885Z,5.60
2022-10-04T17:49:05.406Z,6.60
2022-10-04T17:52:03.457Z,5.60
2022-10-04T17:55:05.889Z,5.70
2022-10-04T18:00:14.432Z,6.30
2022-10-04T18:03:05.145Z,6.30
2022-10-04T18:05:47.884Z,6.30
2022-10-04T18:08:26.751Z,7.00
2022-10-04T18:11:03.607Z,7.20
2022-10-04T18:13:40.469Z,6.70
2022-10-04T18:16:22.960Z,7.00
2022-10-04T18:18:53.559Z,6.50
2022-10-04T18:21:28.314Z,7.10
2022-10-04T18:24:19.066Z,7.80
2022-10-04T18:27:05.165Z,7.40
2022-10-04T18:29:41.617Z,7.90
2022-10-04T18:32:37.963Z,7.50
2022-10-04T18:35:28.037Z,7.10
2022-10-04T18:38:27.014Z,8.20
2022-10-04T18:40:59.727Z,7.90
2022-10-04T18:43:33.196Z,8.60
2022-10-04T18:46:12.527Z,8.20
2022-10-04T18:48:54.869Z,8.30
2022-10-04T18:51:31.231Z,6.70
2022-10-04T18:54:14.752Z,8.10
2022-10-04T18:56:56.013Z,7.00
2022-10-04T18:59:58.715Z,7.70
2022-10-04T19:02:40.463Z,7.30
2022-10-04T19:05:22.311Z,7.70
2022-10-04T19:08:09.838Z,7.80
2022-10-04T19:10:45.513Z,7.80
2022-10-04T19:13:29.713Z,7.70
2022-10-04T19:16:17.338Z,8.20
2022-10-04T19:18:59.490Z,8.00
2022-10-04T19:21:38.700Z,7.80
2022-10-04T19:24:26.611Z,8.00
2022-10-04T19:27:03.489Z,8.50
2022-10-04T19:29:49.496Z,6.60
2022-10-04T19:32:30.401Z,7.10
2022-10-04T19:35:15.805Z,7.10
2022-10-04T19:37:56.878Z,7.10
2022-10-04T19:40:36.263Z,7.70
2022-10-04T19:43:12.179Z,7.60
2022-10-04T19:45:51.669Z,7.50
2022-10-04T19:48:25.808Z,8.30
2022-10-04T19:51:03.775Z,7.50
2022-10-04T19:53:42.261Z,7.40
2022-10-04T19:56:18.834Z,6.80
2022-10-04T19:58:58.432Z,6.90
2022-10-04T20:01:29.897Z,7.60
2022-10-04T20:04:18.489Z,7.00
2022-10-04T20:06:55.650Z,6.60
2022-10-04T20:09:33.176Z,6.30
2022-10-04T20:12:05.811Z,7.10
2022-10-04T20:15:15.026Z,7.20
2022-10-04T20:17:47.599Z,7.50
2022-10-04T20:20:39.969Z,7.20
2022-10-04T20:23:11.916Z,7.20
2022-10-04T20:26:06.278Z,6.50
2022-10-04T20:28:45.306Z,7.50
2022-10-04T20:31:56.515Z,7.70
2022-10-04T20:34:49.130Z,7.10
2022-10-04T20:37:21.597Z,7.30
2022-10-04T20:40:01.335Z,7.50
2022-10-04T20:42:41.570Z,7.20
2022-10-04T20:45:28.337Z,6.60
2022-10-04T20:47:59.719Z,6.20
2022-10-04T20:50:35.850Z,6.50
2022-10-04T20:53:29.050Z,6.50
2022-10-04T20:56:20.257Z,5.90
2022-10-04T20:58:55.555Z,6.60
2022-10-04T21:01:43.066Z,6.20
2022-10-04T21:04:29.655Z,6.50
2022-10-04T21:07:02.729Z,6.20
2022-10-04T21:09:34.944Z,6.10
2022-10-04T21:12:07.335Z,6.70
2022-10-04T21:14:39.036Z,6.40
2022-10-04T21:17:36.949Z,6.20
2022-10-04T21:20:14.465Z,6.70
2022-10-04T21:23:10.068Z,5.90
2022-10-04T21:25:40.650Z,6.10
2022-10-04T21:28:35.809Z,5.80
2022-10-04T21:31:07.174Z,6.10
2022-10-04T21:33:38.728Z,5.20
2022-10-04T21:36:09.672Z,6.00
2022-10-04T21:38:40.716Z,5.90
2022-10-04T21:41:11.158Z,5.20
2022-10-04T21:43:41.678Z,5.40
2022-10-04T21:46:15.290Z,5.50
2022-10-04T21:48:48.462Z,6.00
2022-10-04T21:51:18.932Z,5.60
2022-10-04T21:53:51.990Z,5.60
2022-10-04T21:56:22.589Z,5.90
2022-10-04T21:58:53.290Z,6.30
2022-10-04T22:01:24.652Z,5.90
2022-10-04T22:03:55.380Z,5.20
2022-10-04T22:06:25.894Z,5.20
2022-10-04T22:08:56.539Z,4.70
2022-10-04T22:11:27.068Z,5.20
2022-10-04T22:14:08.802Z,4.70
2022-10-04T22:16:39.533Z,5.70
2022-10-04T22:19:10.084Z,5.20
2022-10-04T22:21:40.618Z,5.00
2022-10-04T22:24:19.014Z,5.00
2022-10-04T22:26:50.173Z,4.80
2022-10-04T22:29:26.915Z,5.30
2022-10-04T22:31:57.698Z,5.10
2022-10-04T22:34:28.303Z,4.90
2022-10-04T22:37:04.213Z,4.90
2022-10-04T22:39:35.196Z,4.90
2022-10-04T22:42:07.646Z,5.10
2022-10-04T22:44:49.491Z,5.50
2022-10-04T22:47:20.507Z,5.50
2022-10-04T22:49:54.091Z,5.00
2022-10-04T22:52:26.755Z,4.80
2022-10-04T22:55:00.375Z,4.80
2022-10-04T22:57:32.825Z,5.40
2022-10-04T23:00:04.251Z,5.40
2022-10-04T23:02:34.975Z,5.00
2022-10-04T23:05:14.987Z,5.40
2022-10-04T23:07:46.266Z,4.40
2022-10-04T23:10:21.266Z,4.10
2022-10-04T23:12:52.257Z,5.00
2022-10-04T23:15:23.066Z,4.70
2022-10-04T23:17:57.750Z,5.10
2022-10-04T23:20:31.347Z,4.80
2022-10-04T23:23:02.107Z,4.80
2022-10-04T23:25:34.953Z,4.80
2022-10-04T23:28:12.699Z,5.80
2022-10-04T23:30:46.548Z,5.50
2022-10-04T23:33:20.969Z,5.00
2022-10-04T23:35:52.245Z,4.60
2022-10-04T23:38:24.971Z,5.10
2022-10-04T23:40:55.855Z,4.90
2022-10-04T23:43:29.118Z,4.60
2022-10-04T23:46:00.399Z,4.90
2022-10-04T23:51:02.969Z,5.00
2022-10-04T23:53:36.399Z,4.70
2022-10-04T23:56:17.910Z,4.70
2022-10-04T23:58:49.210Z,5.50
